createdAt,value
2019-06-01T00:01:15.838Z,23.28
2019-06-01T00:03:46.422Z,23.28
2019-06-01T00:06:16.160Z,23.26
2019-06-01T00:08:45.666Z,23.26
2019-06-01T00:11:15.467Z,23.25
2019-06-01T00:13:45.609Z,23.25
2019-06-01T00:16:15.196Z,23.25
2019-06-01T00:18:45.939Z,23.24
2019-06-01T00:21:15.562Z,23.23
2019-06-01T00:23:46.473Z,23.23
2019-06-01T00:26:16.115Z,23.23
2019-06-01T00:28:45.835Z,23.21
2019-06-01T00:31:15.389Z,23.21
2019-06-01T00:33:45.441Z,23.21
2019-06-01T00:36:15.067Z,23.21
2019-06-01T00:38:45.672Z,23.19
2019-06-01T00:41:15.245Z,23.19
2019-06-01T00:43:44.728Z,23.18
2019-06-01T00:46:14.280Z,23.18
2019-06-01T00:48:43.855Z,23.17
2019-06-01T00:51:13.647Z,23.16
2019-06-01T00:53:43.423Z,23.17
2019-06-01T00:56:12.918Z,23.17
2019-06-01T00:58:43.643Z,23.17
2019-06-01T01:01:13.608Z,23.17
2019-06-01T01:03:43.930Z,23.17
2019-06-01T01:06:13.637Z,23.17
2019-06-01T01:08:43.124Z,23.18
2019-06-01T01:11:12.680Z,23.18
2019-06-01T01:13:42.150Z,23.17
2019-06-01T01:16:11.704Z,23.17
2019-06-01T01:18:41.181Z,23.18
2019-06-01T01:21:10.770Z,23.18
2019-06-01T01:23:40.198Z,23.19
2019-06-01T01:26:09.705Z,23.20
2019-06-01T01:28:39.160Z,23.19
2019-06-01T01:31:13.672Z,23.19
2019-06-01T01:33:39.824Z,23.20
2019-06-01T01:36:09.329Z,23.20
2019-06-01T01:38:38.847Z,23.21
2019-06-01T01:41:08.372Z,23.21
2019-06-01T01:43:37.896Z,23.21
2019-06-01T01:46:07.486Z,23.21
2019-06-01T01:48:36.952Z,23.21
2019-06-01T01:51:06.555Z,23.22
2019-06-01T01:53:36.023Z,23.21
2019-06-01T01:56:05.768Z,23.21
2019-06-01T01:58:35.229Z,23.22
2019-06-01T02:01:20.717Z,23.22
2019-06-01T02:03:36.028Z,23.23
2019-06-01T02:06:05.807Z,23.24
2019-06-01T02:08:35.332Z,23.24
2019-06-01T02:11:04.731Z,23.25
2019-06-01T02:13:34.247Z,23.24
2019-06-01T02:16:03.704Z,23.25
2019-06-01T02:18:33.231Z,23.26
2019-06-01T02:21:02.834Z,23.26
2019-06-01T02:23:32.280Z,23.26
2019-06-01T02:26:03.174Z,23.27
2019-06-01T02:28:32.990Z,23.28
2019-06-01T02:31:03.912Z,23.28
2019-06-01T02:33:33.575Z,23.30
2019-06-01T02:36:05.076Z,23.33
2019-06-01T02:38:34.228Z,23.35
2019-06-01T02:41:05.669Z,23.37
2019-06-01T02:43:35.030Z,23.41
2019-06-01T02:46:05.513Z,23.44
2019-06-01T02:48:35.622Z,23.48
2019-06-01T02:51:05.560Z,23.53
2019-06-01T02:53:35.935Z,23.56
2019-06-01T02:56:06.248Z,23.61
2019-06-01T02:58:35.745Z,23.65
2019-06-01T03:01:31.044Z,23.68
2019-06-01T03:04:01.390Z,23.73
2019-06-01T03:06:32.521Z,23.76
2019-06-01T03:09:03.973Z,23.81
2019-06-01T03:11:36.571Z,23.84
2019-06-01T03:14:08.921Z,23.88
2019-06-01T03:16:42.516Z,23.92
2019-06-01T03:19:13.626Z,23.98
2019-06-01T03:21:45.776Z,24.03
2019-06-01T03:24:15.302Z,24.07
2019-06-01T03:26:47.325Z,24.11
2019-06-01T03:29:21.728Z,24.16
2019-06-01T03:31:51.301Z,24.20
2019-06-01T03:34:20.917Z,24.26
2019-06-01T03:36:50.589Z,24.31
2019-06-01T03:39:20.636Z,24.35
2019-06-01T03:41:50.379Z,24.39
2019-06-01T03:44:22.688Z,24.44
2019-06-01T03:46:53.944Z,24.46
2019-06-01T03:49:23.395Z,24.48
2019-06-01T03:51:52.838Z,24.50
2019-06-01T03:54:22.481Z,24.51
2019-06-01T03:56:51.984Z,24.53
2019-06-01T03:59:21.506Z,24.53
2019-06-01T04:01:51.043Z,24.54
2019-06-01T04:04:20.524Z,24.53
2019-06-01T04:06:49.994Z,24.52
2019-06-01T04:09:19.586Z,24.51
2019-06-01T04:11:49.045Z,24.51
2019-06-01T04:14:18.531Z,24.50
2019-06-01T04:16:48.034Z,24.49
2019-06-01T04:19:17.612Z,24.49
2019-06-01T04:21:47.131Z,24.49
2019-06-01T04:24:16.660Z,24.48
2019-06-01T04:26:46.136Z,24.47
2019-06-01T04:29:15.713Z,24.48
2019-06-01T04:31:45.178Z,24.48
2019-06-01T04:34:14.677Z,24.48
2019-06-01T04:36:44.178Z,24.49
2019-06-01T04:39:13.826Z,24.50
2019-06-01T04:41:43.319Z,24.52
2019-06-01T04:44:14.346Z,24.54
2019-06-01T04:46:43.902Z,24.54
2019-06-01T04:49:14.899Z,24.56
2019-06-01T04:51:44.641Z,24.56
2019-06-01T04:54:15.703Z,24.56
2019-06-01T04:56:45.265Z,24.58
2019-06-01T04:59:15.326Z,24.58
2019-06-01T05:01:45.035Z,24.58
2019-06-01T05:04:15.491Z,24.59
2019-06-01T05:06:45.261Z,24.60
2019-06-01T05:09:15.739Z,24.61
2019-06-01T05:11:45.458Z,24.62
2019-06-01T05:14:16.555Z,24.64
2019-06-01T05:16:46.281Z,24.65
2019-06-01T05:19:16.638Z,24.68
2019-06-01T05:21:46.363Z,24.68
2019-06-01T05:24:17.166Z,24.70
2019-06-01T05:26:47.042Z,24.72
2019-06-01T05:29:18.028Z,24.74
2019-06-01T05:31:48.171Z,24.75
2019-06-01T05:34:18.320Z,24.76
2019-06-01T05:36:48.427Z,24.76
2019-06-01T05:39:18.681Z,24.78
2019-06-01T05:41:48.552Z,24.78
2019-06-01T05:44:19.309Z,24.77
2019-06-01T05:46:49.094Z,24.77
2019-06-01T05:49:18.686Z,24.78
2019-06-01T05:51:48.339Z,24.77
2019-06-01T05:54:18.905Z,24.77
2019-06-01T05:56:48.487Z,24.76
2019-06-01T05:59:18.368Z,24.77
2019-06-01T06:01:47.956Z,24.77
2019-06-01T06:04:17.627Z,24.76
2019-06-01T06:06:47.180Z,24.76
2019-06-01T06:09:17.170Z,24.76
2019-06-01T06:11:46.839Z,24.76
2019-06-01T06:14:17.619Z,24.75
2019-06-01T06:16:47.291Z,24.75
2019-06-01T06:19:20.230Z,24.75
2019-06-01T06:21:48.096Z,24.76
2019-06-01T06:24:18.542Z,24.75
2019-06-01T06:26:48.089Z,24.76
2019-06-01T06:29:18.825Z,24.75
2019-06-01T06:31:48.534Z,24.75
2019-06-01T06:34:19.595Z,24.75
2019-06-01T06:36:49.349Z,24.76
2019-06-01T06:39:19.962Z,24.77
2019-06-01T06:41:49.598Z,24.78
2019-06-01T06:44:19.137Z,24.79
2019-06-01T06:46:48.588Z,24.80
2019-06-01T06:49:19.162Z,24.81
2019-06-01T06:51:48.727Z,24.83
2019-06-01T06:54:18.292Z,24.85
2019-06-01T06:56:47.784Z,24.86
2019-06-01T06:59:18.474Z,24.87
2019-06-01T07:01:48.176Z,24.88
2019-06-01T07:04:18.927Z,24.89
2019-06-01T07:06:48.714Z,24.90
2019-06-01T07:09:18.245Z,24.90
2019-06-01T07:11:47.755Z,24.90
2019-06-01T07:14:17.223Z,24.90
2019-06-01T07:16:46.751Z,24.90
2019-06-01T07:19:16.266Z,24.89
2019-06-01T07:21:46.224Z,24.90
2019-06-01T07:24:15.774Z,24.90
2019-06-01T07:26:45.356Z,24.91
2019-06-01T07:29:14.885Z,24.92
2019-06-01T07:31:44.494Z,24.92
2019-06-01T07:34:29.597Z,24.92
2019-06-01T07:36:45.286Z,24.92
2019-06-01T07:39:14.880Z,24.93
2019-06-01T07:41:44.473Z,24.93
2019-06-01T07:44:14.078Z,24.93
2019-06-01T07:46:43.583Z,24.91
2019-06-01T07:49:15.418Z,24.91
2019-06-01T07:51:45.333Z,24.90
2019-06-01T07:54:14.842Z,24.89
2019-06-01T07:56:44.378Z,24.89
2019-06-01T07:59:13.901Z,24.88
2019-06-01T08:01:43.438Z,24.88
2019-06-01T08:04:13.042Z,24.88
2019-06-01T08:06:46.625Z,24.87
2019-06-01T08:09:13.714Z,24.87
2019-06-01T08:11:43.278Z,24.86
2019-06-01T08:14:12.740Z,24.86
2019-06-01T08:16:42.233Z,24.85
2019-06-01T08:19:11.796Z,24.86
2019-06-01T08:21:41.301Z,24.86
2019-06-01T08:24:10.943Z,24.87
2019-06-01T08:26:40.490Z,24.88
2019-06-01T08:29:10.010Z,24.88
2019-06-01T08:31:39.506Z,24.90
2019-06-01T08:34:09.213Z,24.92
2019-06-01T08:36:38.827Z,24.96
2019-06-01T08:39:08.491Z,24.97
2019-06-01T08:41:37.957Z,24.98
2019-06-01T08:44:07.441Z,24.98
2019-06-01T08:46:37.092Z,24.99
2019-06-01T08:49:06.732Z,24.98
2019-06-01T08:51:36.328Z,24.98
2019-06-01T08:54:06.061Z,24.97
2019-06-01T08:56:35.713Z,24.97
2019-06-01T08:59:05.312Z,24.96
2019-06-01T09:01:35.053Z,24.95
2019-06-01T09:04:04.836Z,24.97
2019-06-01T09:06:35.709Z,24.96
2019-06-01T09:09:06.998Z,24.97
2019-06-01T09:11:36.580Z,24.96
2019-06-01T09:14:06.256Z,24.96
2019-06-01T09:16:36.078Z,24.96
2019-06-01T09:19:05.762Z,24.96
2019-06-01T09:21:35.718Z,24.95
2019-06-01T09:24:05.486Z,24.92
2019-06-01T09:26:36.096Z,24.91
2019-06-01T09:29:06.176Z,24.91
2019-06-01T09:31:36.683Z,24.90
2019-06-01T09:34:06.381Z,24.87
2019-06-01T09:36:36.822Z,24.86
2019-06-01T09:39:08.813Z,24.85
2019-06-01T09:41:38.474Z,24.82
2019-06-01T09:44:08.036Z,24.79
2019-06-01T09:46:37.570Z,24.77
2019-06-01T09:49:07.185Z,24.75
2019-06-01T09:51:37.784Z,24.73
2019-06-01T09:54:07.614Z,24.71
2019-06-01T09:56:39.278Z,24.69
2019-06-01T09:59:08.271Z,24.67
2019-06-01T10:01:38.854Z,24.65
2019-06-01T10:04:10.110Z,24.64
2019-06-01T10:06:39.671Z,24.62
2019-06-01T10:09:10.026Z,24.60
2019-06-01T10:11:39.567Z,24.59
2019-06-01T10:14:09.276Z,24.58
2019-06-01T10:16:39.110Z,24.56
2019-06-01T10:19:08.672Z,24.55
2019-06-01T10:21:38.198Z,24.54
2019-06-01T10:24:07.887Z,24.53
2019-06-01T10:26:37.680Z,24.52
2019-06-01T10:29:07.289Z,24.51
2019-06-01T10:31:40.146Z,24.49
2019-06-01T10:34:08.161Z,24.49
2019-06-01T10:36:38.071Z,24.48
2019-06-01T10:39:08.794Z,24.46
2019-06-01T10:41:39.485Z,24.46
2019-06-01T10:44:09.109Z,24.45
2019-06-01T10:46:40.047Z,24.44
2019-06-01T10:49:09.807Z,24.43
2019-06-01T10:51:40.362Z,24.44
2019-06-01T10:54:10.128Z,24.43
2019-06-01T10:56:40.516Z,24.43
2019-06-01T10:59:10.277Z,24.43
2019-06-01T11:01:40.913Z,24.43
2019-06-01T11:04:11.994Z,24.43
2019-06-01T11:06:47.735Z,24.43
2019-06-01T11:09:12.890Z,24.43
2019-06-01T11:11:43.194Z,24.42
2019-06-01T11:14:12.731Z,24.42
2019-06-01T11:16:43.875Z,24.41
2019-06-01T11:19:14.030Z,24.40
2019-06-01T11:21:43.743Z,24.40
2019-06-01T11:24:13.479Z,24.38
2019-06-01T11:26:43.887Z,24.38
2019-06-01T11:29:13.470Z,24.37
2019-06-01T11:31:44.238Z,24.37
2019-06-01T11:34:13.956Z,24.36
2019-06-01T11:37:03.655Z,24.35
2019-06-01T11:39:14.673Z,24.34
2019-06-01T11:41:44.765Z,24.34
2019-06-01T11:44:14.471Z,24.32
2019-06-01T11:46:45.161Z,24.32
2019-06-01T11:49:14.722Z,24.30
2019-06-01T11:51:45.278Z,24.30
2019-06-01T11:54:14.970Z,24.29
2019-06-01T11:56:45.492Z,24.27
2019-06-01T11:59:15.234Z,24.27
2019-06-01T12:01:46.049Z,24.26
2019-06-01T12:04:15.719Z,24.26
2019-06-01T12:06:46.294Z,24.25
2019-06-01T12:09:15.996Z,24.25
2019-06-01T12:11:46.444Z,24.25
2019-06-01T12:14:15.987Z,24.24
2019-06-01T12:16:46.766Z,24.23
2019-06-01T12:19:16.496Z,24.23
2019-06-01T12:21:47.280Z,24.22
2019-06-01T12:24:16.988Z,24.22
2019-06-01T12:26:47.619Z,24.22
2019-06-01T12:29:17.214Z,24.21
2019-06-01T12:31:48.054Z,24.21
2019-06-01T12:34:17.709Z,24.20
2019-06-01T12:36:48.477Z,24.20
2019-06-01T12:39:18.237Z,24.20
2019-06-01T12:41:47.927Z,24.19
2019-06-01T12:44:17.482Z,24.19
2019-06-01T12:46:47.287Z,24.18
2019-06-01T12:49:16.894Z,24.18
2019-06-01T12:51:47.073Z,24.16
2019-06-01T12:54:16.767Z,24.16
2019-06-01T12:56:47.747Z,24.15
2019-06-01T12:59:17.627Z,24.14
2019-06-01T13:01:47.357Z,24.14
2019-06-01T13:04:16.961Z,24.13
2019-06-01T13:06:50.325Z,24.12
2019-06-01T13:09:17.693Z,24.10
2019-06-01T13:11:47.389Z,24.12
2019-06-01T13:14:17.129Z,24.10
2019-06-01T13:16:57.076Z,24.09
2019-06-01T13:19:17.972Z,24.09
2019-06-01T13:21:47.547Z,24.07
2019-06-01T13:24:17.086Z,24.06
2019-06-01T13:26:47.684Z,24.04
2019-06-01T13:29:17.319Z,24.04
2019-06-01T13:31:48.150Z,24.03
2019-06-01T13:34:17.876Z,24.02
2019-06-01T13:36:48.835Z,24.01
2019-06-01T13:39:18.646Z,24.00
2019-06-01T13:41:49.506Z,23.99
2019-06-01T13:44:19.210Z,24.00
2019-06-01T13:46:49.455Z,23.98
2019-06-01T13:49:19.099Z,23.98
2019-06-01T13:51:48.674Z,23.98
2019-06-01T13:54:18.191Z,23.98
2019-06-01T13:56:48.823Z,23.97
2019-06-01T13:59:18.527Z,23.98
2019-06-01T14:01:48.815Z,23.98
2019-06-01T14:04:18.369Z,23.98
2019-06-01T14:06:49.012Z,23.97
2019-06-01T14:09:21.822Z,23.98
2019-06-01T14:11:49.870Z,23.97
2019-06-01T14:14:19.372Z,23.96
2019-06-01T14:16:49.518Z,23.96
2019-06-01T14:19:19.097Z,23.97
2019-06-01T14:21:50.238Z,23.95
2019-06-01T14:24:19.836Z,23.95
2019-06-01T14:26:50.063Z,23.94
2019-06-01T14:29:19.664Z,23.93
2019-06-01T14:31:50.477Z,23.92
2019-06-01T14:34:20.414Z,23.92
2019-06-01T14:36:50.519Z,23.90
2019-06-01T14:39:20.017Z,23.88
2019-06-01T14:41:49.541Z,23.87
2019-06-01T14:44:19.035Z,23.87
2019-06-01T14:46:54.902Z,23.85
2019-06-01T14:49:19.782Z,23.85
2019-06-01T14:51:49.941Z,23.83
2019-06-01T14:54:19.658Z,23.83
2019-06-01T14:56:49.729Z,23.83
2019-06-01T14:59:19.445Z,23.82
2019-06-01T15:01:50.019Z,23.81
2019-06-01T15:04:19.620Z,23.81
2019-06-01T15:06:50.217Z,23.82
2019-06-01T15:09:20.208Z,23.84
2019-06-01T15:11:50.623Z,23.86
2019-06-01T15:14:20.343Z,23.89
2019-06-01T15:16:49.918Z,23.94
2019-06-01T15:19:19.432Z,23.99
2019-06-01T15:21:49.930Z,24.02
2019-06-01T15:24:19.712Z,24.04
2019-06-01T15:28:27.072Z,24.11
2019-06-01T15:30:57.098Z,24.06
2019-06-01T15:33:26.774Z,24.04
2019-06-01T15:35:57.629Z,24.05
2019-06-01T15:38:27.407Z,24.07
2019-06-01T15:40:58.211Z,24.07
2019-06-01T15:43:28.036Z,24.09
2019-06-01T15:45:57.647Z,24.09
2019-06-01T15:48:27.147Z,24.09
2019-06-01T15:51:01.330Z,24.10
2019-06-01T15:53:28.892Z,24.10
2019-06-01T15:55:59.199Z,24.11
2019-06-01T15:58:28.767Z,24.10
2019-06-01T16:00:59.075Z,24.10
2019-06-01T16:03:33.776Z,24.10
2019-06-01T16:06:06.115Z,24.09
2019-06-01T16:08:35.712Z,24.09
2019-06-01T16:11:08.912Z,24.08
2019-06-01T16:13:42.137Z,24.08
2019-06-01T16:16:11.816Z,24.07
2019-06-01T16:18:41.387Z,24.06
2019-06-01T16:21:11.000Z,24.04
2019-06-01T16:23:49.956Z,24.04
2019-06-01T16:26:16.417Z,24.04
2019-06-01T16:28:44.138Z,24.04
2019-06-01T16:31:13.644Z,24.04
2019-06-01T16:33:43.182Z,24.04
2019-06-01T16:36:12.911Z,24.03
2019-06-01T16:38:42.549Z,24.02
2019-06-01T16:41:11.993Z,24.02
2019-06-01T16:43:41.576Z,24.02
2019-06-01T16:46:11.100Z,24.01
2019-06-01T16:48:40.530Z,24.01
2019-06-01T16:51:10.222Z,24.00
2019-06-01T16:53:39.700Z,24.02
2019-06-01T16:56:09.431Z,24.02
2019-06-01T16:58:39.410Z,24.01
2019-06-01T17:01:08.967Z,24.01
2019-06-01T17:03:38.484Z,24.01
2019-06-01T17:06:08.069Z,24.01
2019-06-01T17:08:37.564Z,24.01
2019-06-01T17:11:07.054Z,24.01
2019-06-01T17:13:36.625Z,24.10
2019-06-01T17:16:07.188Z,24.10
2019-06-01T17:18:36.900Z,24.07
2019-06-01T17:21:07.590Z,24.07
2019-06-01T17:23:37.265Z,24.06
2019-06-01T17:26:07.604Z,24.05
2019-06-01T17:28:38.095Z,24.03
2019-06-01T17:31:08.439Z,24.03
2019-06-01T17:33:38.182Z,24.02
2019-06-01T17:36:08.859Z,24.01
2019-06-01T17:38:38.540Z,24.00
2019-06-01T17:41:08.427Z,23.99
2019-06-01T17:43:38.217Z,23.98
2019-06-01T17:46:07.727Z,23.98
2019-06-01T17:48:37.242Z,23.97
2019-06-01T17:51:06.820Z,23.98
2019-06-01T17:53:36.314Z,23.95
2019-06-01T17:56:06.081Z,23.95
2019-06-01T17:58:35.779Z,23.93
2019-06-01T18:01:06.322Z,23.94
2019-06-01T18:03:36.030Z,23.94
2019-06-01T18:06:05.935Z,23.93
2019-06-01T18:08:35.492Z,23.92
2019-06-01T18:11:05.968Z,23.91
2019-06-01T18:13:35.685Z,23.90
2019-06-01T18:16:06.257Z,23.89
2019-06-01T18:18:38.078Z,23.88
2019-06-01T18:21:08.447Z,23.87
2019-06-01T18:23:38.131Z,23.86
2019-06-01T18:26:08.964Z,23.85
2019-06-01T18:28:38.833Z,23.84
2019-06-01T18:31:08.793Z,23.83
2019-06-01T18:33:38.551Z,23.82
2019-06-01T18:36:08.071Z,23.81
2019-06-01T18:38:37.694Z,23.80
2019-06-01T18:41:15.938Z,23.79
2019-06-01T18:43:38.884Z,23.79
2019-06-01T18:46:08.445Z,23.77
2019-06-01T18:48:38.089Z,23.77
2019-06-01T18:51:10.041Z,23.77
2019-06-01T18:53:39.838Z,23.74
2019-06-01T18:56:10.178Z,23.73
2019-06-01T18:58:39.850Z,23.72
2019-06-01T19:01:10.679Z,23.71
2019-06-01T19:03:40.353Z,23.72
2019-06-01T19:06:09.892Z,23.70
2019-06-01T19:08:39.466Z,23.69
2019-06-01T19:11:24.690Z,23.69
2019-06-01T19:13:40.375Z,23.68
2019-06-01T19:16:10.139Z,23.68
2019-06-01T19:18:39.691Z,23.67
2019-06-01T19:21:09.237Z,23.67
2019-06-01T19:23:38.982Z,23.66
2019-06-01T19:26:11.628Z,23.66
2019-06-01T19:28:39.738Z,23.66
2019-06-01T19:31:09.323Z,23.65
2019-06-01T19:33:38.779Z,23.65
2019-06-01T19:36:08.930Z,23.65
2019-06-01T19:38:39.572Z,23.64
2019-06-01T19:41:09.201Z,23.65
2019-06-01T19:43:38.700Z,23.64
2019-06-01T19:46:08.274Z,23.65
2019-06-01T19:48:37.809Z,23.63
2019-06-01T19:51:08.636Z,23.64
2019-06-01T19:53:38.295Z,23.65
2019-06-01T19:56:08.794Z,23.65
2019-06-01T19:58:38.414Z,23.65
2019-06-01T20:01:07.930Z,23.65
2019-06-01T20:03:37.522Z,23.66
2019-06-01T20:06:07.211Z,23.65
2019-06-01T20:08:36.671Z,23.65
2019-06-01T20:11:06.165Z,23.66
2019-06-01T20:13:35.636Z,23.66
2019-06-01T20:16:05.134Z,23.66
2019-06-01T20:18:34.785Z,23.66
2019-06-01T20:21:04.766Z,23.66
2019-06-01T20:23:34.237Z,23.66
2019-06-01T20:26:03.788Z,23.67
2019-06-01T20:28:33.372Z,23.66
2019-06-01T20:31:03.024Z,23.66
2019-06-01T20:33:32.607Z,23.66
2019-06-01T20:36:02.167Z,23.66
2019-06-01T20:38:32.763Z,23.65
2019-06-01T20:41:02.240Z,23.65
2019-06-01T20:43:31.812Z,23.65
2019-06-01T20:46:01.353Z,23.62
2019-06-01T20:48:30.903Z,23.63
2019-06-01T20:51:00.439Z,23.62
2019-06-01T20:53:30.139Z,23.62
2019-06-01T20:55:59.925Z,23.62
2019-06-01T20:58:29.566Z,23.62
2019-06-01T21:00:59.150Z,23.61
2019-06-01T21:03:28.674Z,23.61
2019-06-01T21:05:58.221Z,23.61
2019-06-01T21:08:27.832Z,23.61
2019-06-01T21:10:57.316Z,23.59
2019-06-01T21:13:26.895Z,23.60
2019-06-01T21:15:56.385Z,23.59
2019-06-01T21:18:25.894Z,23.60
2019-06-01T21:20:55.564Z,23.58
2019-06-01T21:23:25.398Z,23.58
2019-06-01T21:25:55.048Z,23.58
2019-06-01T21:28:25.782Z,23.58
2019-06-01T21:30:55.557Z,23.58
2019-06-01T21:33:28.180Z,23.58
2019-06-01T21:35:56.297Z,23.57
2019-06-01T21:38:25.877Z,23.58
2019-06-01T21:40:55.335Z,23.58
2019-06-01T21:43:33.115Z,23.59
2019-06-01T21:45:56.107Z,23.59
2019-06-01T21:48:26.128Z,23.58
2019-06-01T21:50:55.695Z,23.58
2019-06-01T21:53:26.546Z,23.57
2019-06-01T21:55:56.214Z,23.58
2019-06-01T21:58:26.702Z,23.56
2019-06-01T22:00:56.596Z,23.56
2019-06-01T22:03:27.318Z,23.55
2019-06-01T22:05:57.089Z,23.54
2019-06-01T22:08:27.550Z,23.54
2019-06-01T22:10:57.181Z,23.54
2019-06-01T22:13:28.395Z,23.53
2019-06-01T22:15:58.026Z,23.53
2019-06-01T22:18:27.965Z,23.52
2019-06-01T22:20:57.634Z,23.52
2019-06-01T22:23:28.189Z,23.51
2019-06-01T22:25:58.894Z,23.52
2019-06-01T22:28:28.745Z,23.53
2019-06-01T22:30:58.393Z,23.52
2019-06-01T22:33:28.761Z,23.52
2019-06-01T22:35:58.548Z,23.52
2019-06-01T22:38:28.102Z,23.54
2019-06-01T22:40:57.630Z,23.53
2019-06-01T22:43:43.475Z,23.54
2019-06-01T22:45:58.483Z,23.54
2019-06-01T22:48:29.239Z,23.53
2019-06-01T22:50:58.971Z,23.53
2019-06-01T22:53:28.640Z,23.52
2019-06-01T22:55:58.130Z,23.51
2019-06-01T22:58:27.587Z,23.51
2019-06-01T23:00:57.168Z,23.51
2019-06-01T23:03:27.959Z,23.50
2019-06-01T23:05:57.681Z,23.49
2019-06-01T23:08:27.397Z,23.49
2019-06-01T23:10:57.121Z,23.48
2019-06-01T23:13:26.634Z,23.47
2019-06-01T23:15:56.124Z,23.47
2019-06-01T23:18:25.720Z,23.45
2019-06-01T23:20:55.216Z,23.45
2019-06-01T23:23:26.013Z,23.45
2019-06-01T23:25:55.553Z,23.44
2019-06-01T23:28:26.204Z,23.43
2019-06-01T23:30:55.827Z,23.42
2019-06-01T23:33:25.337Z,23.42
2019-06-01T23:35:54.938Z,23.42
2019-06-01T23:38:24.657Z,23.41
2019-06-01T23:40:54.146Z,23.41
2019-06-01T23:43:24.732Z,23.40
2019-06-01T23:45:54.266Z,23.41
2019-06-01T23:48:25.026Z,23.40
2019-06-01T23:50:54.694Z,23.40
2019-06-01T23:53:25.328Z,23.39
2019-06-01T23:55:54.957Z,23.40
2019-06-01T23:58:24.479Z,23.38
